createdAt,value
2019-02-18T00:00:40.873Z,215
2019-02-18T00:01:40.793Z,215
2019-02-18T00:02:40.905Z,215
2019-02-18T00:03:40.952Z,215
2019-02-18T00:04:40.843Z,215
2019-02-18T00:05:40.896Z,215
2019-02-18T00:06:40.785Z,215
2019-02-18T00:07:40.923Z,215
2019-02-18T00:08:40.883Z,215
2019-02-18T00:09:40.859Z,215
2019-02-18T00:10:40.812Z,215
2019-02-18T00:11:40.791Z,215
2019-02-18T00:12:40.832Z,215
2019-02-18T00:13:40.886Z,215
2019-02-18T00:14:40.880Z,215
2019-02-18T00:15:40.881Z,215
2019-02-18T00:16:40.934Z,215
2019-02-18T00:17:42.971Z,215
2019-02-18T00:18:40.916Z,215.3
2019-02-18T00:19:40.875Z,215.1
2019-02-18T00:20:40.778Z,215.1
2019-02-18T00:21:40.885Z,215
2019-02-18T00:22:40.735Z,215
2019-02-18T00:23:40.880Z,215
2019-02-18T00:24:40.781Z,215
2019-02-18T00:25:40.802Z,215
2019-02-18T00:26:40.881Z,215
2019-02-18T00:27:44.483Z,215
2019-02-18T00:28:40.767Z,215.3
2019-02-18T00:29:40.813Z,215.1
2019-02-18T00:30:40.822Z,215.1
2019-02-18T00:31:40.815Z,215
2019-02-18T00:32:40.879Z,215
2019-02-18T00:33:40.750Z,215
2019-02-18T00:34:40.797Z,215
2019-02-18T00:35:40.811Z,215
2019-02-18T00:36:40.876Z,215
2019-02-18T00:37:40.754Z,215
2019-02-18T00:38:40.775Z,215
2019-02-18T00:39:40.755Z,215
2019-02-18T00:40:40.933Z,215
2019-02-18T00:41:40.828Z,215
2019-02-18T00:42:40.786Z,215
2019-02-18T00:43:40.791Z,215
2019-02-18T00:44:40.718Z,215
2019-02-18T00:45:40.862Z,215
2019-02-18T00:46:40.820Z,215
2019-02-18T00:47:40.814Z,215
2019-02-18T00:48:40.796Z,215
2019-02-18T00:49:41.499Z,215
2019-02-18T00:50:40.801Z,215
2019-02-18T00:51:40.788Z,215
2019-02-18T00:52:40.855Z,215
2019-02-18T00:53:40.812Z,215
2019-02-18T00:54:40.773Z,215
2019-02-18T00:55:40.728Z,215
2019-02-18T00:56:40.788Z,215
2019-02-18T00:57:40.859Z,215
2019-02-18T00:58:40.740Z,215
2019-02-18T00:59:40.791Z,215
2019-02-18T01:00:40.728Z,215
2019-02-18T01:01:40.725Z,215
2019-02-18T01:02:40.869Z,215
2019-02-18T01:03:40.693Z,215
2019-02-18T01:04:40.791Z,215
2019-02-18T01:05:40.855Z,215
2019-02-18T01:06:40.771Z,215
2019-02-18T01:07:40.791Z,215
2019-02-18T01:08:40.822Z,215
2019-02-18T01:09:40.837Z,215
2019-02-18T01:10:40.847Z,215
2019-02-18T01:11:40.725Z,215
2019-02-18T01:12:40.712Z,215
2019-02-18T01:13:40.842Z,215
2019-02-18T01:14:40.972Z,215
2019-02-18T01:15:40.866Z,215
2019-02-18T01:16:43.426Z,215
2019-02-18T01:17:40.737Z,215.3
2019-02-18T01:18:40.878Z,215.1
2019-02-18T01:19:40.769Z,215.1
2019-02-18T01:20:40.866Z,215
2019-02-18T01:21:40.794Z,215
2019-02-18T01:22:40.718Z,215
2019-02-18T01:23:40.861Z,215
2019-02-18T01:24:40.821Z,215
2019-02-18T01:25:40.846Z,215
2019-02-18T01:26:40.774Z,215
2019-02-18T01:27:40.780Z,215
2019-02-18T01:28:40.761Z,215
2019-02-18T01:29:40.779Z,215
2019-02-18T01:30:40.846Z,215
2019-02-18T01:31:40.782Z,215
2019-02-18T01:32:40.767Z,215
2019-02-18T01:33:40.702Z,215
2019-02-18T01:34:40.780Z,215
2019-02-18T01:35:40.814Z,215
2019-02-18T01:36:40.749Z,215
2019-02-18T01:37:49.065Z,215.3
2019-02-18T01:38:40.763Z,215.5
2019-02-18T01:39:40.727Z,215.3
2019-02-18T01:40:40.712Z,215.1
2019-02-18T01:41:40.818Z,215.1
2019-02-18T01:42:40.783Z,215
2019-02-18T01:43:40.745Z,215
2019-02-18T01:44:40.697Z,215
2019-02-18T01:45:40.771Z,215
2019-02-18T01:46:40.827Z,215
2019-02-18T01:47:40.774Z,215
2019-02-18T01:48:40.779Z,215
2019-02-18T01:49:40.769Z,215
2019-02-18T01:50:40.815Z,215
2019-02-18T01:51:40.779Z,215
2019-02-18T01:52:40.757Z,215
2019-02-18T01:53:40.824Z,215
2019-02-18T01:54:40.760Z,215
2019-02-18T01:55:40.754Z,215
2019-02-18T01:56:40.702Z,215
2019-02-18T01:57:40.832Z,215
2019-02-18T01:58:40.749Z,215
2019-02-18T01:59:40.760Z,215
2019-02-18T02:00:40.760Z,215
2019-02-18T02:01:40.694Z,215
2019-02-18T02:02:40.747Z,215
2019-02-18T02:03:40.823Z,215
2019-02-18T02:04:40.750Z,215
2019-02-18T02:05:40.822Z,215
2019-02-18T02:06:40.684Z,215
2019-02-18T02:07:40.765Z,215
2019-02-18T02:08:40.803Z,215
2019-02-18T02:09:40.712Z,215
2019-02-18T02:10:40.747Z,215
2019-02-18T02:11:40.751Z,215
2019-02-18T02:12:40.698Z,215
2019-02-18T02:13:40.759Z,215
2019-02-18T02:14:40.772Z,215
2019-02-18T02:15:40.811Z,215
2019-02-18T02:16:42.169Z,215
2019-02-18T02:17:40.702Z,215
2019-02-18T02:18:40.778Z,215
2019-02-18T02:19:40.808Z,215
2019-02-18T02:20:40.735Z,215
2019-02-18T02:21:40.807Z,215
2019-02-18T02:22:40.681Z,215
2019-02-18T02:23:40.765Z,215
2019-02-18T02:24:40.744Z,215
2019-02-18T02:25:40.750Z,215
2019-02-18T02:26:40.854Z,215
2019-02-18T02:27:40.726Z,215
2019-02-18T02:28:41.757Z,215
2019-02-18T02:29:40.730Z,215
2019-02-18T02:30:40.826Z,215
2019-02-18T02:31:40.790Z,215
2019-02-18T02:32:40.762Z,215
2019-02-18T02:33:40.717Z,215
2019-02-18T02:34:40.785Z,215
2019-02-18T02:35:40.840Z,215
2019-02-18T02:36:40.760Z,215
2019-02-18T02:37:40.843Z,215
2019-02-18T02:38:40.778Z,215
2019-02-18T02:39:40.671Z,215
2019-02-18T02:40:40.754Z,215
2019-02-18T02:41:40.759Z,215
2019-02-18T02:42:40.819Z,215
2019-02-18T02:43:40.830Z,215
2019-02-18T02:44:40.706Z,215
2019-02-18T02:45:40.755Z,215
2019-02-18T02:46:40.735Z,215
2019-02-18T02:47:40.822Z,215
2019-02-18T02:48:40.732Z,215
2019-02-18T02:49:40.671Z,215
2019-02-18T02:50:40.745Z,215
2019-02-18T02:51:40.724Z,215
2019-02-18T02:52:40.714Z,215
2019-02-18T02:53:40.812Z,215
2019-02-18T02:54:40.742Z,215
2019-02-18T02:55:40.646Z,215
2019-02-18T02:56:40.915Z,215
2019-02-18T02:57:40.833Z,215
2019-02-18T02:58:43.614Z,215
2019-02-18T02:59:40.744Z,215.6
2019-02-18T03:00:40.670Z,215.3
2019-02-18T03:01:40.778Z,215.1
2019-02-18T03:02:40.806Z,215.1
2019-02-18T03:03:40.771Z,215
2019-02-18T03:04:40.739Z,215
2019-02-18T03:05:44.134Z,215
2019-02-18T03:06:40.749Z,215.3
2019-02-18T03:07:40.737Z,215.1
2019-02-18T03:08:40.768Z,215.1
2019-02-18T03:09:40.744Z,215
2019-02-18T03:10:40.747Z,215
2019-02-18T03:11:40.741Z,215
2019-02-18T03:12:40.751Z,215
2019-02-18T03:13:40.790Z,215
2019-02-18T03:14:40.706Z,215
2019-02-18T03:15:40.731Z,215
2019-02-18T03:16:40.744Z,215
2019-02-18T03:17:40.730Z,215
2019-02-18T03:18:40.648Z,215
2019-02-18T03:19:40.726Z,215
2019-02-18T03:20:40.674Z,215
2019-02-18T03:21:40.772Z,215
2019-02-18T03:22:40.651Z,215
2019-02-18T03:23:40.772Z,215
2019-02-18T03:24:40.713Z,215
2019-02-18T03:25:40.719Z,215
2019-02-18T03:26:40.634Z,215
2019-02-18T03:27:40.635Z,215
2019-02-18T03:28:40.666Z,215
2019-02-18T03:29:40.664Z,215
2019-02-18T03:30:40.787Z,215
2019-02-18T03:31:40.673Z,215
2019-02-18T03:32:40.666Z,215
2019-02-18T03:33:40.708Z,215
2019-02-18T03:34:40.715Z,215
2019-02-18T03:35:40.736Z,215
2019-02-18T03:36:40.675Z,215
2019-02-18T03:37:40.666Z,215
2019-02-18T03:38:42.604Z,215
2019-02-18T03:39:40.729Z,215
2019-02-18T03:40:40.705Z,215
2019-02-18T03:41:43.313Z,215
2019-02-18T03:42:40.717Z,215
2019-02-18T03:43:40.701Z,215
2019-02-18T03:44:40.768Z,215
2019-02-18T03:45:40.730Z,215
2019-02-18T03:46:53.105Z,215
2019-02-18T03:47:40.728Z,216.1
2019-02-18T03:48:40.710Z,215.5
2019-02-18T03:49:40.768Z,215.2
2019-02-18T03:50:40.763Z,215.1
2019-02-18T03:51:40.742Z,215.1
2019-02-18T03:52:40.725Z,215
2019-02-18T03:53:40.681Z,215
2019-02-18T03:54:40.645Z,215
2019-02-18T03:55:40.713Z,215
2019-02-18T03:56:40.713Z,215
2019-02-18T03:57:40.642Z,215
2019-02-18T03:58:40.670Z,215
2019-02-18T03:59:40.667Z,215
2019-02-18T04:00:40.724Z,215
2019-02-18T04:01:40.766Z,215
2019-02-18T04:02:40.701Z,215
2019-02-18T04:03:40.638Z,215
2019-02-18T04:04:40.677Z,215
2019-02-18T04:05:40.669Z,215
2019-02-18T04:06:40.641Z,215
2019-02-18T04:07:40.678Z,215
2019-02-18T04:08:46.588Z,215
2019-02-18T04:09:40.787Z,215
2019-02-18T04:10:40.692Z,215
2019-02-18T04:11:40.630Z,215
2019-02-18T04:12:40.868Z,215
2019-02-18T04:13:40.718Z,215
2019-02-18T04:14:40.678Z,215
2019-02-18T04:15:40.623Z,215
2019-02-18T04:16:43.736Z,215
2019-02-18T04:17:40.686Z,215
2019-02-18T04:18:40.681Z,215
2019-02-18T04:19:40.620Z,215
2019-02-18T04:20:40.689Z,215
2019-02-18T04:21:40.683Z,215
2019-02-18T04:22:40.672Z,215
2019-02-18T04:23:40.603Z,215
2019-02-18T04:24:40.704Z,215
2019-02-18T04:25:40.702Z,215
2019-02-18T04:26:40.598Z,215
2019-02-18T04:27:41.425Z,215
2019-02-18T04:28:40.720Z,215
2019-02-18T04:29:40.801Z,215
2019-02-18T04:30:40.640Z,215
2019-02-18T04:31:40.668Z,215
2019-02-18T04:32:40.640Z,215
2019-02-18T04:33:40.728Z,215
2019-02-18T04:34:40.608Z,215
2019-02-18T04:35:40.640Z,215
2019-02-18T04:36:40.643Z,215
2019-02-18T04:37:40.623Z,215
2019-02-18T04:38:40.682Z,215
2019-02-18T04:39:40.664Z,215
2019-02-18T04:40:40.693Z,215
2019-02-18T04:41:40.638Z,215
2019-02-18T04:42:40.601Z,215
2019-02-18T04:43:43.318Z,215
2019-02-18T04:44:40.685Z,215
2019-02-18T04:45:40.694Z,215
2019-02-18T04:46:40.644Z,215
2019-02-18T04:47:40.641Z,215
2019-02-18T04:48:40.751Z,215
2019-02-18T04:49:40.648Z,215
2019-02-18T04:50:40.725Z,215
2019-02-18T04:51:40.631Z,215
2019-02-18T04:52:40.634Z,215
2019-02-18T04:53:40.612Z,215
2019-02-18T04:54:40.622Z,215
2019-02-18T04:55:40.678Z,215
2019-02-18T04:56:40.635Z,215
2019-02-18T04:57:40.597Z,215
2019-02-18T04:58:40.620Z,215
2019-02-18T04:59:40.630Z,215
2019-02-18T05:00:40.722Z,215
2019-02-18T05:01:40.631Z,215
2019-02-18T05:02:40.602Z,215
2019-02-18T05:03:40.606Z,215
2019-02-18T05:04:40.650Z,215
2019-02-18T05:05:40.711Z,215
2019-02-18T05:06:40.740Z,215
2019-02-18T05:07:40.663Z,215
2019-02-18T05:08:40.615Z,215
2019-02-18T05:09:43.395Z,215
2019-02-18T05:10:40.689Z,215
2019-02-18T05:11:40.676Z,215
2019-02-18T05:12:40.619Z,215
2019-02-18T05:13:40.632Z,215
2019-02-18T05:14:40.613Z,215
2019-02-18T05:15:42.685Z,215
2019-02-18T05:16:40.653Z,215
2019-02-18T05:17:40.589Z,215
2019-02-18T05:18:40.628Z,215
2019-02-18T05:19:40.605Z,215
2019-02-18T05:20:40.630Z,215
2019-02-18T05:21:40.865Z,215
2019-02-18T05:22:40.638Z,215
2019-02-18T05:23:40.617Z,215
2019-02-18T05:24:40.672Z,215
2019-02-18T05:25:40.612Z,215
2019-02-18T05:26:40.665Z,215
2019-02-18T05:27:40.686Z,215
2019-02-18T05:28:40.612Z,215
2019-02-18T05:29:40.591Z,215
2019-02-18T05:30:40.569Z,215
2019-02-18T05:31:40.795Z,215
2019-02-18T05:32:40.596Z,215
2019-02-18T05:33:40.600Z,215
2019-02-18T05:34:40.601Z,215
2019-02-18T05:35:40.615Z,215
2019-02-18T05:36:40.677Z,215
2019-02-18T05:37:40.664Z,215
2019-02-18T05:38:40.578Z,215
2019-02-18T05:39:40.582Z,215
2019-02-18T05:40:40.624Z,215
2019-02-18T05:41:40.789Z,215
2019-02-18T05:42:40.603Z,215
2019-02-18T05:43:40.631Z,215
2019-02-18T05:44:40.608Z,215
2019-02-18T05:45:40.629Z,215
2019-02-18T05:46:40.634Z,215
2019-02-18T05:47:40.869Z,215
2019-02-18T05:48:40.600Z,215
2019-02-18T05:49:40.652Z,215
2019-02-18T05:50:40.612Z,215
2019-02-18T05:51:40.663Z,215
2019-02-18T05:52:40.701Z,215
2019-02-18T05:53:40.637Z,215.3
2019-02-18T05:54:40.603Z,215.1
2019-02-18T05:55:41.319Z,215.1
2019-02-18T05:56:40.631Z,215
2019-02-18T05:57:40.656Z,215
2019-02-18T05:58:41.146Z,215
2019-02-18T05:59:40.631Z,215
2019-02-18T06:00:40.600Z,215
2019-02-18T06:01:40.624Z,215
2019-02-18T06:02:40.570Z,215
2019-02-18T06:03:40.667Z,215
2019-02-18T06:04:40.704Z,215
2019-02-18T06:05:44.091Z,215
2019-02-18T06:06:40.638Z,215.3
2019-02-18T06:07:40.560Z,215.1
2019-02-18T06:08:40.917Z,215.1
2019-02-18T06:09:40.574Z,215
2019-02-18T06:10:40.581Z,215
2019-02-18T06:11:40.585Z,215
2019-02-18T06:12:40.579Z,215
2019-02-18T06:13:40.680Z,215
2019-02-18T06:14:40.651Z,215
2019-02-18T06:15:40.610Z,215
2019-02-18T06:16:42.580Z,215
2019-02-18T06:17:40.579Z,215.3
2019-02-18T06:18:40.605Z,215.1
2019-02-18T06:19:40.700Z,215.1
2019-02-18T06:20:40.579Z,215
2019-02-18T06:21:40.571Z,215
2019-02-18T06:22:42.329Z,215
2019-02-18T06:23:40.591Z,215
2019-02-18T06:24:40.738Z,215
2019-02-18T06:25:40.565Z,215
2019-02-18T06:26:40.583Z,215
2019-02-18T06:27:40.657Z,215
2019-02-18T06:28:40.579Z,215
2019-02-18T06:29:40.617Z,215
2019-02-18T06:30:40.659Z,215
2019-02-18T06:31:40.576Z,215
2019-02-18T06:32:40.599Z,215
2019-02-18T06:33:40.627Z,215
2019-02-18T06:34:40.575Z,215
2019-02-18T06:35:40.542Z,215
2019-02-18T06:36:40.716Z,215
2019-02-18T06:37:40.571Z,215
2019-02-18T06:38:40.571Z,215
2019-02-18T06:39:45.159Z,215
2019-02-18T06:40:40.579Z,215
2019-02-18T06:41:40.602Z,215
2019-02-18T06:42:40.666Z,215
2019-02-18T06:43:43.819Z,215
2019-02-18T06:44:40.619Z,215
2019-02-18T06:45:40.584Z,215
2019-02-18T06:46:40.572Z,215
2019-02-18T06:47:40.644Z,215
2019-02-18T06:48:40.572Z,215
2019-02-18T06:49:40.525Z,215
2019-02-18T06:50:40.632Z,215
2019-02-18T06:51:40.616Z,215
2019-02-18T06:52:40.561Z,215
2019-02-18T06:53:40.605Z,215
2019-02-18T06:54:40.564Z,215
2019-02-18T06:55:40.596Z,215
2019-02-18T06:56:40.561Z,215
2019-02-18T06:57:40.646Z,215
2019-02-18T06:58:40.538Z,215
2019-02-18T06:59:40.565Z,215
2019-02-18T07:00:40.553Z,215
2019-02-18T07:01:40.562Z,215
2019-02-18T07:02:40.656Z,215
2019-02-18T07:03:40.552Z,215
2019-02-18T07:04:40.573Z,215
2019-02-18T07:05:43.243Z,215
2019-02-18T07:06:40.618Z,215
2019-02-18T07:07:45.686Z,215
2019-02-18T07:08:40.523Z,215.3
2019-02-18T07:09:50.419Z,215.1
2019-02-18T07:10:40.539Z,215.1
2019-02-18T07:11:40.628Z,215
2019-02-18T07:12:40.530Z,215
2019-02-18T07:13:40.635Z,215
2019-02-18T07:14:40.527Z,215
2019-02-18T07:15:40.548Z,215
2019-02-18T07:16:42.801Z,215
2019-02-18T07:17:40.557Z,215
2019-02-18T07:18:40.556Z,215
2019-02-18T07:19:40.555Z,215
2019-02-18T07:20:40.611Z,215
2019-02-18T07:21:40.546Z,215
2019-02-18T07:22:40.596Z,215
2019-02-18T07:23:40.525Z,215
2019-02-18T07:24:40.532Z,215
2019-02-18T07:25:40.659Z,215
2019-02-18T07:26:40.589Z,215
2019-02-18T07:27:40.558Z,215
2019-02-18T07:28:40.524Z,215
2019-02-18T07:29:40.551Z,215
2019-02-18T07:30:40.597Z,215
2019-02-18T07:31:40.544Z,215
2019-02-18T07:32:40.532Z,215
2019-02-18T07:33:40.605Z,215
2019-02-18T07:34:40.528Z,215
2019-02-18T07:35:40.536Z,215
2019-02-18T07:36:40.531Z,215
2019-02-18T07:37:40.608Z,215
2019-02-18T07:38:40.615Z,215
2019-02-18T07:39:40.585Z,215
2019-02-18T07:40:40.528Z,215
2019-02-18T07:41:40.554Z,215
2019-02-18T07:42:40.588Z,215
2019-02-18T07:43:41.189Z,215
2019-02-18T07:44:40.603Z,215
2019-02-18T07:45:40.613Z,215
2019-02-18T07:46:40.645Z,215
2019-02-18T07:47:40.660Z,215
2019-02-18T07:48:40.553Z,215
2019-02-18T07:49:40.620Z,215
2019-02-18T07:50:40.608Z,215
2019-02-18T07:51:40.615Z,215
2019-02-18T07:52:40.612Z,215
2019-02-18T07:53:40.674Z,215
2019-02-18T07:54:40.637Z,215
2019-02-18T07:55:40.635Z,215
2019-02-18T07:56:40.681Z,215
2019-02-18T07:57:40.610Z,215
2019-02-18T07:58:40.621Z,215
2019-02-18T07:59:42.664Z,215
2019-02-18T08:00:40.546Z,215
2019-02-18T08:01:40.676Z,215
2019-02-18T08:02:40.674Z,215
2019-02-18T08:03:40.600Z,215
2019-02-18T08:04:40.604Z,215
2019-02-18T08:05:40.619Z,215
2019-02-18T08:06:40.608Z,215
2019-02-18T08:07:40.640Z,215
2019-02-18T08:08:40.608Z,215
2019-02-18T08:09:40.604Z,215
2019-02-18T08:10:40.608Z,215
2019-02-18T08:11:40.596Z,215
2019-02-18T08:12:40.602Z,215
2019-02-18T08:13:40.585Z,215
2019-02-18T08:14:40.617Z,215
2019-02-18T08:15:40.674Z,215
2019-02-18T08:16:40.631Z,215
2019-02-18T08:17:40.555Z,215
2019-02-18T08:18:40.739Z,215
2019-02-18T08:19:40.666Z,215
2019-02-18T08:20:40.618Z,215
2019-02-18T08:21:40.609Z,215
2019-02-18T08:22:40.572Z,215
2019-02-18T08:23:40.682Z,215
2019-02-18T08:24:40.571Z,215
2019-02-18T08:25:40.613Z,215
2019-02-18T08:26:40.761Z,215
2019-02-18T08:27:40.524Z,215
2019-02-18T08:28:40.561Z,215
2019-02-18T08:29:40.677Z,215
2019-02-18T08:30:40.617Z,215
2019-02-18T08:31:40.544Z,215
2019-02-18T08:32:45.223Z,215
2019-02-18T08:33:40.598Z,215.3
2019-02-18T08:34:40.615Z,215.1
2019-02-18T08:35:40.585Z,215.1
2019-02-18T08:36:40.592Z,215
2019-02-18T08:37:40.626Z,215
2019-02-18T08:38:40.623Z,215
2019-02-18T08:39:40.554Z,215
2019-02-18T08:40:40.592Z,215
2019-02-18T08:41:40.570Z,215
2019-02-18T08:42:40.674Z,215
2019-02-18T08:43:40.596Z,215
2019-02-18T08:44:40.539Z,215
2019-02-18T08:45:40.631Z,215
2019-02-18T08:46:40.613Z,215
2019-02-18T08:47:40.559Z,215
2019-02-18T08:48:40.604Z,215
2019-02-18T08:49:40.602Z,215
2019-02-18T08:50:40.595Z,215
2019-02-18T08:51:40.610Z,215
2019-02-18T08:52:40.671Z,215
2019-02-18T08:53:40.615Z,215
2019-02-18T08:54:40.656Z,215
2019-02-18T08:55:40.586Z,215
2019-02-18T08:56:40.598Z,215
2019-02-18T08:57:40.609Z,215
2019-02-18T08:58:40.618Z,215
2019-02-18T08:59:40.717Z,215
2019-02-18T09:00:40.615Z,215
2019-02-18T09:01:40.591Z,215
2019-02-18T09:02:40.613Z,215
2019-02-18T09:03:40.626Z,215
2019-02-18T09:04:40.668Z,215
2019-02-18T09:05:40.587Z,215
2019-02-18T09:06:40.608Z,215
2019-02-18T09:07:40.602Z,215
2019-02-18T09:08:40.604Z,215
2019-02-18T09:09:40.620Z,215
2019-02-18T09:10:40.610Z,215
2019-02-18T09:11:40.628Z,215
2019-02-18T09:12:40.633Z,215
2019-02-18T09:13:40.674Z,215
2019-02-18T09:14:40.596Z,215
2019-02-18T09:15:40.538Z,215
2019-02-18T09:16:40.621Z,215
2019-02-18T09:17:40.555Z,215
2019-02-18T09:18:40.620Z,215
2019-02-18T09:19:40.607Z,215
2019-02-18T09:20:40.594Z,215
2019-02-18T09:21:40.709Z,215
2019-02-18T09:22:40.517Z,215
2019-02-18T09:23:40.594Z,215
2019-02-18T09:24:40.589Z,215
2019-02-18T09:25:40.562Z,215
2019-02-18T09:26:40.689Z,215
2019-02-18T09:27:40.575Z,215
2019-02-18T09:28:40.688Z,215
2019-02-18T09:29:40.608Z,215
2019-02-18T09:30:40.600Z,215
2019-02-18T09:31:42.683Z,215
2019-02-18T09:32:40.558Z,215
2019-02-18T09:33:40.615Z,215
2019-02-18T09:34:40.624Z,215
2019-02-18T09:35:40.588Z,215
2019-02-18T09:36:40.600Z,215
2019-02-18T09:37:40.576Z,215
2019-02-18T09:38:40.604Z,215
2019-02-18T09:39:40.610Z,215
2019-02-18T09:40:53.423Z,215
2019-02-18T09:41:40.614Z,215
2019-02-18T09:42:43.646Z,215
2019-02-18T09:43:40.642Z,215.3
2019-02-18T09:44:40.585Z,215.1
2019-02-18T09:45:40.591Z,215.1
2019-02-18T09:46:42.715Z,215
2019-02-18T09:47:40.601Z,215
2019-02-18T09:48:40.648Z,215
2019-02-18T09:49:40.542Z,215
2019-02-18T09:50:40.817Z,215
2019-02-18T09:51:40.638Z,215
2019-02-18T09:52:40.594Z,215
2019-02-18T09:53:40.612Z,215
2019-02-18T09:54:40.590Z,215
2019-02-18T09:55:40.602Z,215
2019-02-18T09:56:40.560Z,215
2019-02-18T09:57:40.584Z,215
2019-02-18T09:58:40.664Z,215
2019-02-18T09:59:40.609Z,215
2019-02-18T10:00:40.641Z,215
2019-02-18T10:01:42.984Z,215
2019-02-18T10:02:40.631Z,215
2019-02-18T10:03:40.615Z,215
2019-02-18T10:04:40.625Z,215
2019-02-18T10:05:40.604Z,215
2019-02-18T10:06:40.551Z,215
2019-02-18T10:07:40.584Z,215
2019-02-18T10:08:40.664Z,215
2019-02-18T10:09:40.634Z,215
2019-02-18T10:10:40.614Z,215
2019-02-18T10:11:40.543Z,215
2019-02-18T10:12:40.596Z,215
2019-02-18T10:13:40.545Z,215
2019-02-18T10:14:40.674Z,215
2019-02-18T10:15:40.594Z,215
2019-02-18T10:16:40.607Z,215
2019-02-18T10:17:40.640Z,215
2019-02-18T10:18:40.571Z,215
2019-02-18T10:19:42.811Z,215
2019-02-18T10:20:40.566Z,215
2019-02-18T10:21:42.525Z,215
2019-02-18T10:22:40.586Z,215.3
2019-02-18T10:23:40.566Z,215.1
2019-02-18T10:24:51.982Z,215.1
2019-02-18T10:25:40.543Z,215
2019-02-18T10:26:40.632Z,215
2019-02-18T10:27:40.536Z,215
2019-02-18T10:28:40.554Z,215.3
2019-02-18T10:29:40.548Z,215.1
2019-02-18T10:30:40.630Z,215.1
2019-02-18T10:31:40.533Z,215
2019-02-18T10:32:40.850Z,215
2019-02-18T10:33:40.668Z,215
2019-02-18T10:34:40.548Z,215
2019-02-18T10:35:40.645Z,215
2019-02-18T10:36:40.565Z,215
2019-02-18T10:37:40.551Z,215
2019-02-18T10:38:42.501Z,215
2019-02-18T10:39:40.570Z,215
2019-02-18T10:40:40.652Z,215
2019-02-18T10:41:40.541Z,215
2019-02-18T10:42:40.623Z,215
2019-02-18T10:43:44.515Z,215
2019-02-18T10:44:51.043Z,215
2019-02-18T10:45:40.540Z,215
2019-02-18T10:46:43.024Z,215
2019-02-18T10:47:40.543Z,215
2019-02-18T10:48:40.577Z,215
2019-02-18T10:49:40.659Z,215
2019-02-18T10:50:40.568Z,215
2019-02-18T10:51:41.574Z,215
2019-02-18T10:52:40.765Z,215
2019-02-18T10:53:40.640Z,215
2019-02-18T10:54:40.614Z,215
2019-02-18T10:55:40.567Z,215
2019-02-18T10:56:40.655Z,208.6
2019-02-18T10:57:40.701Z,187.6
2019-02-18T10:58:41.019Z,177.9
2019-02-18T10:59:40.629Z,173.6
2019-02-18T11:00:40.563Z,171.7
2019-02-18T11:01:40.572Z,170.8
2019-02-18T11:02:40.609Z,170.4
2019-02-18T11:03:40.583Z,170.2
2019-02-18T11:04:40.615Z,170.1
2019-02-18T11:05:41.427Z,170
2019-02-18T11:06:41.393Z,170
2019-02-18T11:07:40.622Z,170
2019-02-18T11:08:40.552Z,170
2019-02-18T11:09:40.632Z,170
2019-02-18T11:10:40.565Z,170
2019-02-18T11:11:40.627Z,170
2019-02-18T11:12:40.583Z,170
2019-02-18T11:13:40.658Z,170
2019-02-18T11:14:40.693Z,170
2019-02-18T11:15:40.557Z,170
2019-02-18T11:16:40.560Z,174.1
2019-02-18T11:17:42.707Z,183.9
2019-02-18T11:18:40.936Z,188.5
2019-02-18T11:19:40.623Z,190.7
2019-02-18T11:20:40.644Z,191.6
2019-02-18T11:21:43.556Z,192.1
2019-02-18T11:22:40.660Z,192.3
2019-02-18T11:23:40.696Z,192.4
2019-02-18T11:24:40.562Z,192.5
2019-02-18T11:25:40.576Z,192.5
2019-02-18T11:26:41.338Z,192.5
2019-02-18T11:27:40.659Z,192.5
2019-02-18T11:28:40.586Z,192.5
2019-02-18T11:29:40.679Z,192.5
2019-02-18T11:30:42.587Z,192.5
2019-02-18T11:31:40.575Z,192.5
2019-02-18T11:32:40.629Z,192.5
2019-02-18T11:33:40.569Z,192.5
2019-02-18T11:34:41.368Z,192.5
2019-02-18T11:35:40.664Z,192.5
2019-02-18T11:36:40.591Z,192.5
2019-02-18T11:37:40.616Z,192.5
2019-02-18T11:38:40.579Z,192.5
2019-02-18T11:39:40.650Z,192.5
2019-02-18T11:40:40.639Z,192.5
2019-02-18T11:41:40.584Z,192.5
2019-02-18T11:42:41.773Z,192.5
2019-02-18T11:43:45.571Z,192.5
2019-02-18T11:44:40.601Z,192.5
2019-02-18T11:45:40.583Z,192.5
2019-02-18T11:46:40.615Z,192.5
2019-02-18T11:47:40.597Z,192.5
2019-02-18T11:48:40.665Z,192.5
2019-02-18T11:49:40.559Z,192.5
2019-02-18T11:50:41.240Z,192.5
2019-02-18T11:51:40.574Z,192.5
2019-02-18T11:52:40.576Z,192.5
2019-02-18T11:53:40.645Z,192.5
2019-02-18T11:54:40.583Z,192.5
2019-02-18T11:55:42.461Z,192.5
2019-02-18T11:56:40.627Z,192.5
2019-02-18T11:57:40.615Z,192.5
2019-02-18T11:58:41.335Z,192.5
2019-02-18T11:59:40.661Z,192.5
2019-02-18T12:00:40.590Z,192.5
2019-02-18T12:01:40.589Z,192.5
2019-02-18T12:02:40.677Z,192.5
2019-02-18T12:03:40.581Z,192.5
2019-02-18T12:04:40.571Z,192.5
2019-02-18T12:05:40.823Z,192.5
2019-02-18T12:06:40.628Z,192.5
2019-02-18T12:07:40.633Z,192.5
2019-02-18T12:08:40.670Z,192.5
2019-02-18T12:09:40.584Z,192.5
2019-02-18T12:10:40.646Z,192.5
2019-02-18T12:11:41.877Z,192.5
2019-02-18T12:12:40.580Z,192.5
2019-02-18T12:13:41.497Z,192.5
2019-02-18T12:14:40.725Z,192.5
2019-02-18T12:15:40.581Z,192.5
2019-02-18T12:16:40.680Z,192.5
2019-02-18T12:17:40.598Z,192.5
2019-02-18T12:18:40.639Z,192.5
2019-02-18T12:19:40.647Z,192.5
2019-02-18T12:20:41.229Z,192.5
2019-02-18T12:21:43.360Z,192.5
2019-02-18T12:22:40.597Z,192.5
2019-02-18T12:23:40.572Z,192.5
2019-02-18T12:24:42.722Z,192.5
2019-02-18T12:25:40.568Z,192.5
2019-02-18T12:26:40.603Z,192.5
2019-02-18T12:27:40.664Z,192.5
2019-02-18T12:28:41.704Z,192.5
2019-02-18T12:29:40.745Z,192.5
2019-02-18T12:30:40.647Z,192.5
2019-02-18T12:31:40.652Z,192.5
2019-02-18T12:32:40.664Z,192.5
2019-02-18T12:33:40.563Z,192.5
2019-02-18T12:34:40.568Z,192.5
2019-02-18T12:35:40.586Z,192.5
2019-02-18T12:36:41.477Z,192.5
2019-02-18T12:37:40.559Z,192.5
2019-02-18T12:38:42.365Z,192.5
2019-02-18T12:39:40.584Z,192.5
2019-02-18T12:40:40.635Z,192.5
2019-02-18T12:41:50.460Z,192.5
2019-02-18T12:42:43.365Z,192.5
2019-02-18T12:43:40.592Z,192.5
2019-02-18T12:44:41.379Z,192.5
2019-02-18T12:45:40.689Z,192.5
2019-02-18T12:46:40.627Z,192.5
2019-02-18T12:47:40.621Z,192.5
2019-02-18T12:48:40.598Z,192.5
2019-02-18T12:49:40.665Z,192.5
2019-02-18T12:50:40.641Z,192.5
2019-02-18T12:51:41.469Z,192.5
2019-02-18T12:52:40.659Z,192.5
2019-02-18T12:53:40.701Z,192.5
2019-02-18T12:54:40.711Z,192.5
2019-02-18T12:55:40.634Z,192.5
2019-02-18T12:56:40.673Z,192.5
2019-02-18T12:57:40.814Z,192.5
2019-02-18T12:58:41.206Z,192.5
2019-02-18T12:59:40.937Z,192.5
2019-02-18T13:00:40.646Z,192.5
2019-02-18T13:01:40.663Z,192.5
2019-02-18T13:02:47.979Z,192.5
2019-02-18T13:03:40.689Z,192.5
2019-02-18T13:04:40.693Z,192.5
2019-02-18T13:05:41.301Z,192.5
2019-02-18T13:06:40.608Z,192.5
2019-02-18T13:07:40.635Z,192.5
2019-02-18T13:08:40.736Z,192.5
2019-02-18T13:09:40.624Z,192.5
2019-02-18T13:10:47.418Z,192.5
2019-02-18T13:11:40.621Z,192.5
2019-02-18T13:12:41.108Z,192.5
2019-02-18T13:13:40.599Z,192.5
2019-02-18T13:14:40.636Z,192.5
2019-02-18T13:15:40.694Z,192.5
2019-02-18T13:16:40.682Z,192.5
2019-02-18T13:17:42.701Z,187.5
2019-02-18T13:18:40.593Z,178.1
2019-02-18T13:19:40.657Z,173.8
2019-02-18T13:20:41.579Z,171.8
2019-02-18T13:21:43.628Z,170.8
2019-02-18T13:22:40.661Z,170.4
2019-02-18T13:23:40.605Z,170.2
2019-02-18T13:24:40.604Z,170.1
2019-02-18T13:25:48.389Z,170
2019-02-18T13:26:40.597Z,170
2019-02-18T13:27:41.457Z,170
2019-02-18T13:28:40.567Z,170
2019-02-18T13:29:40.647Z,170
2019-02-18T13:30:40.618Z,170
2019-02-18T13:31:40.595Z,170
2019-02-18T13:32:43.701Z,170
2019-02-18T13:33:40.592Z,170